Kezdőlap
METAR-TAF:

METAR-TAF

Repülőterek :

Tunisz, Tunézia

földrajzi szélesség: 36-50N, földrajzi hosszúság: 010-14E, magasság: 3 m

Jelenlegi meteorológiai megfigyelések

A jelentés 59 perccel ezelõtt készült, 04:00 UTC
Nyugati szél 18 kt széllökések: 28 kt, nyugat-délnyugati és nyugat-északnyugati között változik
Hőmérséklet 16°C
Páratartalom 68%
Légköri nyomás 1021 hPa
Látótávolság 10 km, vagy több
Szórványos felhőzet 2300 lábon

METAR: DTTA 100400Z 28018G28KT 240V300 9999 SCT023 16/10 Q1021 NOSIG

Idő: 05:59 (04:59 UTC)

Előrejelzés

A jelentés 5 órával és 59 perccel ezelõtt készült, 23:00 UTC
Az előrejelzés 10-én 00 óra UTC és 10-én 24 óra UTC között érvényes
Nyugati szél 15 kt széllökések: 30 kt
Látótávolság 10 km, vagy több
Szórványos felhőzet 2300 lábon
10-én 10 óra UTC és 10-én 12 óra UTC között fokozatosan kialakuló
Északnyugati szél 22 kt széllökések: 40 kt

TAF: DTTA 092300Z 1000/1024 27015G30KT 9999 SCT023 BECMG 1010/1012 31022G40KT

Meteorológiai megfigyelések és előrejelzések több, mint 4000 repülőtéren (METAR és TAF jelentéseket).

A térképen piros és sárga pontok jelzik az elérhető meteorológiai állomásokat.

Mozgassa az egeret a pont fölött, hogy megjelenjen az állomás neve.

Azután kattintson az időjárási megfigyelések és előrejelzések megtekintéséhez.

A térkép megváltoztatása: kattintson a fekete keresztel jelölt zöld gombra ráközelítéshez, a vonallal jelölt zöld gombra távolításhoz, vagy a zöld nyilakra a szomszédos térképek eléréséhez.


METAR-TAF: